Terminal Aerodrome Forecast
Issued by NWS

Home | Current Version | Previous Version | Text Only | Print | Product List | Glossary On
Versions: 1 2 3 4 5 6 7 8 9 10 11 12 13 14 15
000
FTUS41 KCAR 232320
TAFPQI
TAF
KPQI 232320Z 2400/2424 31010G18KT P6SM SKC
     FM240130 31004KT P6SM SKC
     FM241400 19008KT P6SM OVC080
     FM241600 19012KT P6SM OVC050
     FM241800 19012G20KT 4SM -SHSN BR OVC025=

USA.gov is the U.S. government's official web portal to all federal, state and local government web resources and services.